Fort Walton Beach, Florida
Current Conditions -  °F | °C
As of 3:31 PM on Friday 19 Dec 2014 (Local Time) from KQBL Reporting Station
Broken Clouds Broken Clouds  
Wind Chill: 52°   Ceiling: 10000
Heat Index: 52°   Visibility: 10mi
Dew Point: 46°   Wind: 3mph
Humidity: 82%   Direction: 20°NNE
Pressure: 30.07"   Gusts: NA
Location:  30.4°N, 86.61°W
Report Text: KQBL 192131Z AUTO 02003KT 10SM SCT023 BKN100 11/08 A3007 RMK AO2
Loading
Personal Weather Stations






























Interactive Weather Map New forecast layout! Learn more

10-Day Weather Forecast

Advertisements
Track Severe Weather on mobile